createdAt,value
2022-08-03T00:00:32.005Z,61.30
2022-08-03T00:01:31.965Z,61.43
2022-08-03T00:02:31.981Z,61.33
2022-08-03T00:03:32.045Z,61.43
2022-08-03T00:04:34.173Z,61.54
2022-08-03T00:05:31.947Z,62.04
2022-08-03T00:06:36.781Z,61.83
2022-08-03T00:07:32.881Z,62.43
2022-08-03T00:08:31.883Z,62.53
2022-08-03T00:09:35.701Z,62.43
2022-08-03T00:10:31.900Z,62.63
2022-08-03T00:11:31.862Z,62.43
2022-08-03T00:12:31.839Z,62.53
2022-08-03T00:13:31.865Z,62.93
2022-08-03T00:14:31.806Z,66.43
2022-08-03T00:15:31.882Z,66.53
2022-08-03T00:16:31.821Z,66.26
2022-08-03T00:17:52.568Z,67.06
2022-08-03T00:18:32.835Z,67.56
2022-08-03T00:19:31.729Z,67.16
2022-08-03T00:20:31.757Z,66.96
2022-08-03T00:21:31.693Z,66.69
2022-08-03T00:22:31.678Z,67.29
2022-08-03T00:23:51.427Z,67.40
2022-08-03T00:24:32.682Z,66.69
2022-08-03T00:25:31.631Z,66.69
2022-08-03T00:26:31.677Z,65.49
2022-08-03T00:27:32.663Z,65.29
2022-08-03T00:28:31.609Z,65.19
2022-08-03T00:29:31.589Z,65.19
2022-08-03T00:30:31.672Z,64.99
2022-08-03T00:31:52.305Z,64.79
2022-08-03T00:32:32.636Z,64.99
2022-08-03T00:33:31.526Z,64.52
2022-08-03T00:34:57.854Z,65.02
2022-08-03T00:35:50.016Z,65.02
2022-08-03T00:36:32.481Z,65.42
2022-08-03T00:37:41.499Z,65.42
2022-08-03T00:38:32.512Z,65.42
2022-08-03T00:39:31.448Z,65.33
2022-08-03T00:40:31.502Z,65.52
2022-08-03T00:41:31.568Z,65.92
2022-08-03T00:42:31.478Z,66.32
2022-08-03T00:43:31.413Z,66.32
2022-08-03T00:44:31.410Z,66.42
2022-08-03T00:45:31.400Z,66.72
2022-08-03T00:46:31.403Z,67.13
2022-08-03T00:47:31.415Z,67.32
2022-08-03T00:48:33.651Z,67.52
2022-08-03T00:49:31.401Z,67.82
2022-08-03T00:50:31.315Z,68.16
2022-08-03T00:51:31.453Z,67.66
2022-08-03T00:52:31.288Z,67.66
2022-08-03T00:53:31.307Z,68.36
2022-08-03T00:54:31.263Z,68.26
2022-08-03T00:55:31.251Z,68.16
2022-08-03T00:56:31.232Z,68.16
2022-08-03T00:57:31.312Z,68.36
2022-08-03T00:58:31.225Z,68.36
2022-08-03T00:59:31.195Z,68.55
2022-08-03T01:00:31.183Z,68.46
2022-08-03T01:01:32.595Z,68.26
2022-08-03T01:02:31.159Z,68.16
2022-08-03T01:03:31.178Z,68.26
2022-08-03T01:04:31.153Z,68.26
2022-08-03T01:05:31.100Z,67.86
2022-08-03T01:06:31.122Z,67.96
2022-08-03T01:07:31.072Z,65.25
2022-08-03T01:08:31.053Z,64.69
2022-08-03T01:09:31.120Z,64.09
2022-08-03T01:10:31.560Z,63.98
2022-08-03T01:11:31.017Z,64.28
2022-08-03T01:12:31.004Z,63.39
2022-08-03T01:14:02.383Z,63.48
2022-08-03T01:14:32.025Z,63.68
2022-08-03T01:15:30.985Z,63.68
2022-08-03T01:16:35.940Z,63.89
2022-08-03T01:17:31.976Z,63.89
2022-08-03T01:18:30.954Z,66.59
2022-08-03T01:19:30.902Z,67.09
2022-08-03T01:20:30.988Z,66.78
2022-08-03T01:21:30.884Z,66.69
2022-08-03T01:22:30.870Z,66.89
2022-08-03T01:23:30.868Z,66.99
2022-08-03T01:24:30.877Z,67.19
2022-08-03T01:25:30.848Z,67.62
2022-08-03T01:26:30.867Z,68.09
2022-08-03T01:27:30.824Z,67.72
2022-08-03T01:28:30.785Z,68.42
2022-08-03T01:29:30.772Z,68.22
2022-08-03T01:30:30.855Z,68.32
2022-08-03T01:31:30.771Z,68.32
2022-08-03T01:32:53.242Z,68.82
2022-08-03T01:33:31.764Z,68.32
2022-08-03T01:34:30.714Z,68.32
2022-08-03T01:35:30.726Z,68.22
2022-08-03T01:36:30.675Z,68.22
2022-08-03T01:37:30.659Z,68.12
2022-08-03T01:38:30.721Z,68.42
2022-08-03T01:39:30.644Z,68.52
2022-08-03T01:40:30.633Z,68.73
2022-08-03T01:41:30.633Z,68.82
2022-08-03T01:42:30.611Z,68.82
2022-08-03T01:44:28.126Z,68.85
2022-08-03T01:44:31.608Z,68.85
2022-08-03T01:45:34.214Z,68.96
2022-08-03T01:46:30.567Z,68.96
2022-08-03T01:47:30.546Z,69.06
2022-08-03T01:48:30.554Z,69.06
2022-08-03T01:49:30.577Z,68.76
2022-08-03T01:50:30.542Z,69.06
2022-08-03T01:52:03.498Z,69.06
2022-08-03T01:52:31.471Z,68.96
2022-08-03T01:53:30.455Z,68.96
2022-08-03T01:54:30.464Z,69.06
2022-08-03T01:55:30.435Z,68.96
2022-08-03T01:56:30.457Z,69.26
2022-08-03T01:57:30.386Z,69.26
2022-08-03T01:58:30.382Z,69.66
2022-08-03T01:59:30.390Z,69.96
2022-08-03T02:00:30.366Z,70.16
2022-08-03T02:02:28.663Z,69.96
2022-08-03T02:02:33.937Z,69.86
2022-08-03T02:03:30.345Z,70.36
2022-08-03T02:04:30.316Z,70.46
2022-08-03T02:05:30.305Z,70.66
2022-08-03T02:07:00.556Z,70.76
2022-08-03T02:07:31.275Z,70.96
2022-08-03T02:08:30.304Z,70.96
2022-08-03T02:09:30.262Z,71.16
2022-08-03T02:10:35.185Z,71.16
2022-08-03T02:11:31.232Z,70.50
2022-08-03T02:12:30.246Z,68.99
2022-08-03T02:13:30.228Z,69.19
2022-08-03T02:14:30.196Z,69.26
2022-08-03T02:15:30.177Z,68.96
2022-08-03T02:16:30.185Z,69.06
2022-08-03T02:17:39.724Z,69.26
2022-08-03T02:18:31.147Z,69.35
2022-08-03T02:19:35.271Z,69.96
2022-08-03T02:20:31.096Z,69.86
2022-08-03T02:21:56.874Z,69.99
2022-08-03T02:22:31.100Z,70.59
2022-08-03T02:23:30.063Z,70.19
2022-08-03T02:24:30.117Z,70.29
2022-08-03T02:25:30.095Z,70.09
2022-08-03T02:26:30.039Z,69.89
2022-08-03T02:27:30.073Z,70.09
2022-08-03T02:28:29.990Z,70.19
2022-08-03T02:29:39.887Z,70.29
2022-08-03T02:30:30.992Z,70.19
2022-08-03T02:31:29.965Z,70.32
2022-08-03T02:32:29.941Z,70.43
2022-08-03T02:33:29.958Z,70.79
2022-08-03T02:34:29.919Z,71.39
2022-08-03T02:35:29.904Z,71.39
2022-08-03T02:36:29.911Z,70.79
2022-08-03T02:37:29.882Z,70.63
2022-08-03T02:38:29.886Z,70.32
2022-08-03T02:39:29.877Z,70.63
2022-08-03T02:40:29.889Z,71.33
2022-08-03T02:41:29.831Z,71.83
2022-08-03T02:42:29.819Z,72.03
2022-08-03T02:43:29.807Z,72.24
2022-08-03T02:44:30.775Z,72.24
2022-08-03T02:45:29.756Z,72.03
2022-08-03T02:46:29.797Z,71.73
2022-08-03T02:47:53.349Z,71.93
2022-08-03T02:48:30.726Z,71.83
2022-08-03T02:49:40.888Z,71.43
2022-08-03T02:50:30.713Z,71.53
2022-08-03T02:51:29.697Z,71.93
2022-08-03T02:52:29.697Z,71.53
2022-08-03T02:53:29.680Z,71.53
2022-08-03T02:54:29.737Z,71.33
2022-08-03T02:55:29.644Z,71.33
2022-08-03T02:56:29.638Z,71.23
2022-08-03T02:57:29.628Z,71.13
2022-08-03T02:58:29.633Z,71.23
2022-08-03T02:59:29.606Z,71.06
2022-08-03T03:00:29.576Z,71.06
2022-08-03T03:01:29.656Z,70.96
2022-08-03T03:02:29.567Z,71.03
2022-08-03T03:03:29.802Z,70.93
2022-08-03T03:04:32.977Z,70.63
2022-08-03T03:05:52.345Z,70.32
2022-08-03T03:06:30.493Z,70.03
2022-08-03T03:07:29.472Z,70.03
2022-08-03T03:08:29.485Z,70.23
2022-08-03T03:09:41.877Z,70.43
2022-08-03T03:10:30.488Z,70.63
2022-08-03T03:11:29.498Z,70.96
2022-08-03T03:12:29.403Z,71.16
2022-08-03T03:13:29.405Z,71.36
2022-08-03T03:14:33.441Z,71.16
2022-08-03T03:15:29.373Z,71.26
2022-08-03T03:16:29.395Z,71.36
2022-08-03T03:17:29.339Z,71.36
2022-08-03T03:18:29.319Z,71.36
2022-08-03T03:19:29.343Z,71.36
2022-08-03T03:20:36.273Z,71.50
2022-08-03T03:21:39.459Z,71.60
2022-08-03T03:22:36.785Z,72.10
2022-08-03T03:23:36.282Z,71.90
2022-08-03T03:24:29.262Z,72.20
2022-08-03T03:25:29.261Z,72.50
2022-08-03T03:26:29.272Z,72.71
2022-08-03T03:27:29.232Z,72.90
2022-08-03T03:28:29.217Z,72.90
2022-08-03T03:29:29.198Z,72.90
2022-08-03T03:30:29.208Z,72.80
2022-08-03T03:31:29.187Z,72.90
2022-08-03T03:32:29.133Z,73.21
2022-08-03T03:33:29.274Z,73.30
2022-08-03T03:34:29.123Z,73.41
2022-08-03T03:35:29.098Z,73.21
2022-08-03T03:36:29.125Z,73.21
2022-08-03T03:37:29.097Z,73.50
2022-08-03T03:38:29.051Z,73.64
2022-08-03T03:39:29.055Z,73.84
2022-08-03T03:40:29.038Z,74.04
2022-08-03T03:41:29.034Z,74.35
2022-08-03T03:42:30.053Z,74.44
2022-08-03T03:43:28.985Z,74.65
2022-08-03T03:44:28.971Z,74.95
2022-08-03T03:45:29.023Z,74.24
2022-08-03T03:46:28.953Z,74.44
2022-08-03T03:47:32.353Z,74.65
2022-08-03T03:48:28.964Z,74.85
2022-08-03T03:49:28.965Z,74.65
2022-08-03T03:50:28.896Z,74.44
2022-08-03T03:51:28.884Z,74.55
2022-08-03T03:52:28.862Z,74.44
2022-08-03T03:53:28.879Z,74.65
2022-08-03T03:54:29.416Z,74.65
2022-08-03T03:55:28.835Z,74.85
2022-08-03T03:56:28.815Z,74.85
2022-08-03T03:57:28.833Z,74.65
2022-08-03T03:58:28.794Z,74.65
2022-08-03T03:59:28.804Z,74.65
2022-08-03T04:00:28.817Z,74.65
2022-08-03T04:01:28.757Z,74.65
2022-08-03T04:02:28.780Z,72.03
2022-08-03T04:03:28.749Z,71.43
2022-08-03T04:04:28.695Z,71.03
2022-08-03T04:05:28.743Z,70.93
2022-08-03T04:06:28.772Z,71.03
2022-08-03T04:07:28.722Z,70.73
2022-08-03T04:08:28.657Z,70.63
2022-08-03T04:09:28.634Z,70.43
2022-08-03T04:10:28.647Z,70.23
2022-08-03T04:11:30.160Z,70.23
2022-08-03T04:12:28.594Z,70.43
2022-08-03T04:13:28.664Z,70.46
2022-08-03T04:14:28.584Z,70.76
2022-08-03T04:15:28.568Z,70.46
2022-08-03T04:16:28.602Z,70.56
2022-08-03T04:17:28.535Z,70.66
2022-08-03T04:18:28.545Z,70.86
2022-08-03T04:19:28.546Z,70.96
2022-08-03T04:20:28.528Z,70.96
2022-08-03T04:21:28.498Z,70.43
2022-08-03T04:22:28.455Z,70.53
2022-08-03T04:23:28.482Z,70.83
2022-08-03T04:24:28.442Z,70.73
2022-08-03T04:25:28.465Z,70.29
2022-08-03T04:26:28.463Z,70.50
2022-08-03T04:27:28.396Z,70.29
2022-08-03T04:28:31.130Z,70.19
2022-08-03T04:29:28.379Z,69.79
2022-08-03T04:30:28.380Z,69.59
2022-08-03T04:31:28.396Z,70.09
2022-08-03T04:32:28.357Z,70.39
2022-08-03T04:33:29.612Z,69.49
2022-08-03T04:34:28.320Z,69.79
2022-08-03T04:35:59.689Z,69.26
2022-08-03T04:36:29.322Z,69.15
2022-08-03T04:37:28.286Z,68.42
2022-08-03T04:38:28.264Z,67.15
2022-08-03T04:39:28.274Z,65.59
2022-08-03T04:40:29.711Z,64.22
2022-08-03T04:41:28.228Z,62.86
2022-08-03T04:42:28.261Z,62.04
2022-08-03T04:43:28.209Z,61.87
2022-08-03T04:44:28.804Z,61.25
2022-08-03T04:45:28.165Z,60.62
2022-08-03T04:46:28.155Z,59.66
2022-08-03T04:47:28.137Z,58.74
2022-08-03T04:48:28.139Z,57.92
2022-08-03T04:49:28.199Z,57.49
2022-08-03T04:50:28.095Z,57.26
2022-08-03T04:51:28.087Z,56.57
2022-08-03T04:52:28.087Z,55.65
2022-08-03T04:53:28.049Z,54.65
2022-08-03T04:54:28.028Z,54.97
2022-08-03T04:55:28.061Z,56.12
2022-08-03T04:56:28.018Z,57.15
2022-08-03T04:57:27.999Z,57.15
2022-08-03T04:58:28.029Z,56.62
2022-08-03T04:59:28.062Z,56.20
2022-08-03T05:00:27.958Z,55.38
2022-08-03T05:01:28.027Z,54.85
2022-08-03T05:02:27.949Z,53.61
2022-08-03T05:03:28.010Z,53.51
2022-08-03T05:04:28.095Z,52.86
2022-08-03T05:05:40.669Z,52.04
2022-08-03T05:06:28.900Z,51.62
2022-08-03T05:07:35.946Z,50.90
2022-08-03T05:08:28.869Z,50.06
2022-08-03T05:09:49.986Z,49.96
2022-08-03T05:10:28.863Z,49.54
2022-08-03T05:11:27.840Z,49.13
2022-08-03T05:12:32.356Z,49.22
2022-08-03T05:13:28.861Z,49.13
2022-08-03T05:14:28.209Z,49.22
2022-08-03T05:15:27.783Z,49.13
2022-08-03T05:16:27.753Z,49.44
2022-08-03T05:17:27.764Z,49.54
2022-08-03T05:18:27.757Z,49.77
2022-08-03T05:19:27.834Z,50.16
2022-08-03T05:20:27.713Z,49.74
2022-08-03T05:21:51.847Z,49.32
2022-08-03T05:22:28.683Z,48.41
2022-08-03T05:23:27.686Z,48.09
2022-08-03T05:24:27.674Z,48.09
2022-08-03T05:25:27.754Z,47.89
2022-08-03T05:26:27.681Z,47.25
2022-08-03T05:27:27.624Z,46.54
2022-08-03T05:28:27.635Z,46.12
2022-08-03T05:29:27.625Z,45.93
2022-08-03T05:30:34.081Z,45.83
2022-08-03T05:31:28.595Z,45.51
2022-08-03T05:32:27.603Z,45.21
2022-08-03T05:33:27.567Z,45.09
2022-08-03T05:34:27.546Z,44.90
2022-08-03T05:35:55.818Z,44.80
2022-08-03T05:36:28.618Z,44.90
2022-08-03T05:37:27.516Z,45.09
2022-08-03T05:38:28.678Z,44.90
2022-08-03T05:39:27.514Z,45.19
2022-08-03T05:40:27.477Z,44.90
2022-08-03T05:41:37.150Z,44.70
2022-08-03T05:42:28.486Z,44.51
2022-08-03T05:43:27.468Z,45.24
2022-08-03T05:44:27.460Z,47.30
2022-08-03T05:45:28.487Z,48.55
2022-08-03T05:46:27.428Z,49.15
2022-08-03T05:47:27.398Z,49.66
2022-08-03T05:48:27.434Z,49.87
2022-08-03T05:49:27.477Z,49.77
2022-08-03T05:50:27.363Z,50.88
2022-08-03T05:51:27.422Z,51.42
2022-08-03T05:52:27.349Z,52.66
2022-08-03T05:53:27.337Z,53.26
2022-08-03T05:54:56.484Z,52.73
2022-08-03T05:55:28.336Z,52.02
2022-08-03T05:56:27.312Z,51.37
2022-08-03T05:57:27.358Z,51.07
2022-08-03T05:58:29.930Z,51.20
2022-08-03T05:59:38.170Z,51.32
2022-08-03T06:00:28.388Z,51.42
2022-08-03T06:01:27.331Z,51.50
2022-08-03T06:02:27.231Z,51.10
2022-08-03T06:03:27.234Z,52.02
2022-08-03T06:04:27.207Z,52.44
2022-08-03T06:05:27.211Z,52.54
2022-08-03T06:06:31.868Z,51.60
2022-08-03T06:07:28.170Z,49.94
2022-08-03T06:08:27.206Z,48.71
2022-08-03T06:10:34.186Z,48.21
2022-08-03T06:10:35.093Z,47.99
2022-08-03T06:11:28.184Z,47.57
2022-08-03T06:12:27.111Z,46.74
2022-08-03T06:13:27.106Z,46.42
2022-08-03T06:14:27.143Z,45.81
2022-08-03T06:15:27.084Z,45.29
2022-08-03T06:16:27.117Z,45.00
2022-08-03T06:17:27.078Z,44.70
2022-08-03T06:18:28.072Z,44.51
2022-08-03T06:19:27.053Z,44.29
2022-08-03T06:20:27.502Z,44.80
2022-08-03T06:21:27.188Z,45.19
2022-08-03T06:22:27.202Z,44.80
2022-08-03T06:23:54.460Z,44.38
2022-08-03T06:24:28.036Z,43.46
2022-08-03T06:25:27.010Z,42.72
2022-08-03T06:26:26.997Z,41.92
2022-08-03T06:27:36.362Z,41.41
2022-08-03T06:28:51.554Z,41.39
2022-08-03T06:29:27.936Z,41.09
2022-08-03T06:30:26.959Z,40.61
2022-08-03T06:31:33.132Z,40.48
2022-08-03T06:32:27.923Z,40.27
2022-08-03T06:34:22.876Z,40.68
2022-08-03T06:34:33.405Z,40.58
2022-08-03T06:35:27.862Z,40.56
2022-08-03T06:36:26.890Z,39.86
2022-08-03T06:37:26.848Z,39.56
2022-08-03T06:38:26.856Z,39.45
2022-08-03T06:39:26.827Z,39.37
2022-08-03T06:40:27.021Z,39.76
2022-08-03T06:41:26.845Z,39.78
2022-08-03T06:42:26.837Z,39.59
2022-08-03T06:43:26.808Z,39.47
2022-08-03T06:44:26.788Z,39.07
2022-08-03T06:45:26.855Z,39.07
2022-08-03T06:46:27.812Z,38.67
2022-08-03T06:47:26.758Z,38.26
2022-08-03T06:48:26.766Z,38.04
2022-08-03T06:49:26.809Z,37.95
2022-08-03T06:50:26.846Z,38.16
2022-08-03T06:52:03.248Z,38.26
2022-08-03T06:52:44.870Z,38.14
2022-08-03T06:53:27.690Z,38.02
2022-08-03T06:54:26.659Z,37.73
2022-08-03T06:55:26.640Z,37.63
2022-08-03T06:56:26.682Z,37.62
2022-08-03T06:57:26.635Z,37.52
2022-08-03T06:58:26.686Z,37.63
2022-08-03T07:00:09.788Z,38.76
2022-08-03T07:00:27.662Z,40.82
2022-08-03T07:01:26.679Z,42.99
2022-08-03T07:02:28.450Z,44.72
2022-08-03T07:03:26.640Z,46.26
2022-08-03T07:04:26.641Z,48.03
2022-08-03T07:05:26.568Z,49.66
2022-08-03T07:06:26.543Z,50.51
2022-08-03T07:07:26.550Z,51.75
2022-08-03T07:08:34.082Z,53.16
2022-08-03T07:09:27.589Z,53.51
2022-08-03T07:10:26.481Z,53.91
2022-08-03T07:11:26.480Z,53.98
2022-08-03T07:12:26.466Z,53.58
2022-08-03T07:13:26.549Z,53.19
2022-08-03T07:14:26.501Z,53.06
2022-08-03T07:15:53.662Z,53.06
2022-08-03T07:16:27.418Z,52.86
2022-08-03T07:17:26.411Z,52.84
2022-08-03T07:18:29.443Z,53.03
2022-08-03T07:19:26.409Z,52.64
2022-08-03T07:20:29.842Z,52.64
2022-08-03T07:21:27.347Z,52.24
2022-08-03T07:22:26.374Z,52.14
2022-08-03T07:23:26.373Z,53.36
2022-08-03T07:24:26.334Z,52.96
2022-08-03T07:25:26.323Z,53.45
2022-08-03T07:26:26.302Z,54.28
2022-08-03T07:27:26.266Z,54.08
2022-08-03T07:28:26.306Z,54.17
2022-08-03T07:29:26.277Z,54.28
2022-08-03T07:30:26.255Z,53.58
2022-08-03T07:31:26.305Z,53.68
2022-08-03T07:32:26.212Z,53.48
2022-08-03T07:33:26.222Z,53.58
2022-08-03T07:34:26.216Z,54.08
2022-08-03T07:35:26.199Z,53.48
2022-08-03T07:36:26.213Z,53.78
2022-08-03T07:37:26.353Z,53.78
2022-08-03T07:38:26.218Z,53.51
2022-08-03T07:39:26.186Z,53.80
2022-08-03T07:40:26.972Z,53.41
2022-08-03T07:41:27.123Z,54.08
2022-08-03T07:42:26.082Z,54.87
2022-08-03T07:43:26.130Z,54.38
2022-08-03T07:44:26.073Z,53.48
2022-08-03T07:45:26.070Z,54.35
2022-08-03T07:46:26.675Z,52.56
2022-08-03T07:47:26.049Z,53.58
2022-08-03T07:48:27.035Z,53.19
2022-08-03T07:49:26.048Z,53.58
2022-08-03T07:50:26.122Z,53.68
2022-08-03T07:51:26.034Z,52.89
2022-08-03T07:52:28.383Z,53.26
2022-08-03T07:53:26.026Z,52.96
2022-08-03T07:54:26.089Z,53.06
2022-08-03T07:55:25.916Z,53.45
2022-08-03T07:56:25.953Z,54.15
2022-08-03T07:57:25.919Z,52.76
2022-08-03T07:58:25.890Z,54.92
2022-08-03T07:59:25.902Z,53.75
2022-08-03T08:00:25.916Z,53.06
2022-08-03T08:01:25.931Z,52.86
2022-08-03T08:02:25.882Z,52.96
2022-08-03T08:03:25.798Z,53.16
2022-08-03T08:04:25.821Z,52.86
2022-08-03T08:05:25.748Z,54.02
2022-08-03T08:06:25.846Z,53.33
2022-08-03T08:07:25.739Z,51.94
2022-08-03T08:08:25.721Z,51.75
2022-08-03T08:09:25.743Z,52.24
2022-08-03T08:10:25.718Z,52.12
2022-08-03T08:11:25.688Z,51.52
2022-08-03T08:12:25.767Z,51.82
2022-08-03T08:13:25.676Z,51.32
2022-08-03T08:14:25.698Z,51.92
2022-08-03T08:15:25.653Z,52.29
2022-08-03T08:16:25.621Z,51.60
2022-08-03T08:17:25.710Z,51.70
2022-08-03T08:18:25.640Z,51.10
2022-08-03T08:19:25.590Z,51.40
2022-08-03T08:20:30.547Z,51.20
2022-08-03T08:21:26.653Z,52.59
2022-08-03T08:22:29.982Z,53.35
2022-08-03T08:23:42.242Z,52.36
2022-08-03T08:24:26.617Z,51.65
2022-08-03T08:25:25.523Z,51.15
2022-08-03T08:26:25.506Z,51.45
2022-08-03T08:27:25.478Z,50.66
2022-08-03T08:28:30.210Z,51.05
2022-08-03T08:29:26.476Z,50.46
2022-08-03T08:30:25.444Z,50.16
2022-08-03T08:31:25.420Z,50.46
2022-08-03T08:32:25.405Z,49.96
2022-08-03T08:33:25.815Z,50.06
2022-08-03T08:34:25.482Z,50.16
2022-08-03T08:35:25.434Z,50.16
2022-08-03T08:36:25.542Z,50.26
2022-08-03T08:37:25.379Z,50.73
2022-08-03T08:38:25.600Z,49.84
2022-08-03T08:39:25.323Z,50.83
2022-08-03T08:40:25.404Z,50.53
2022-08-03T08:41:25.671Z,50.63
2022-08-03T08:42:26.408Z,50.13
2022-08-03T08:43:25.260Z,51.40
2022-08-03T08:44:25.389Z,51.99
2022-08-03T08:45:25.283Z,50.21
2022-08-03T08:46:25.220Z,50.12
2022-08-03T08:47:26.056Z,49.62
2022-08-03T08:48:25.247Z,49.82
2022-08-03T08:49:25.251Z,49.62
2022-08-03T08:50:27.190Z,49.60
2022-08-03T08:51:54.818Z,49.49
2022-08-03T08:52:32.029Z,49.40
2022-08-03T08:53:27.610Z,49.30
2022-08-03T08:54:25.117Z,49.27
2022-08-03T08:55:25.150Z,48.98
2022-08-03T08:56:25.096Z,48.78
2022-08-03T08:57:41.988Z,48.66
2022-08-03T08:58:26.095Z,48.27
2022-08-03T08:59:25.186Z,48.46
2022-08-03T09:00:25.096Z,48.07
2022-08-03T09:01:25.111Z,47.97
2022-08-03T09:02:25.183Z,48.46
2022-08-03T09:03:30.065Z,48.54
2022-08-03T09:04:26.038Z,48.24
2022-08-03T09:05:41.567Z,49.22
2022-08-03T09:06:26.689Z,48.54
2022-08-03T09:07:25.129Z,49.03
2022-08-03T09:08:24.927Z,47.75
2022-08-03T09:10:11.058Z,48.14
2022-08-03T09:10:25.939Z,48.04
2022-08-03T09:11:53.711Z,48.74
2022-08-03T09:12:42.630Z,47.85
2022-08-03T09:13:25.897Z,47.35
2022-08-03T09:14:33.669Z,47.23
2022-08-03T09:15:25.854Z,47.03
2022-08-03T09:16:24.871Z,47.13
2022-08-03T09:17:24.875Z,47.13
2022-08-03T09:18:24.881Z,46.62
2022-08-03T09:19:25.785Z,45.83
2022-08-03T09:20:24.831Z,45.21
2022-08-03T09:21:31.850Z,45.02
2022-08-03T09:22:25.858Z,44.92
2022-08-03T09:23:51.802Z,45.12
2022-08-03T09:24:40.794Z,45.59
2022-08-03T09:25:25.741Z,45.00
2022-08-03T09:26:24.696Z,45.09
2022-08-03T09:27:26.161Z,44.80
2022-08-03T09:28:53.883Z,45.00
2022-08-03T09:29:25.662Z,45.09
2022-08-03T09:30:33.707Z,45.49
2022-08-03T09:31:25.688Z,45.19
2022-08-03T09:32:24.642Z,45.19
2022-08-03T09:33:24.612Z,45.07
2022-08-03T09:34:25.646Z,44.98
2022-08-03T09:35:51.631Z,42.91
2022-08-03T09:36:25.575Z,41.24
2022-08-03T09:37:26.076Z,40.82
2022-08-03T09:38:25.564Z,40.23
2022-08-03T09:39:41.770Z,40.61
2022-08-03T09:40:25.556Z,40.31
2022-08-03T09:41:24.668Z,40.21
2022-08-03T09:42:24.570Z,40.88
2022-08-03T09:43:24.520Z,40.69
2022-08-03T09:44:26.147Z,40.19
2022-08-03T09:45:24.902Z,40.19
2022-08-03T09:46:24.491Z,40.39
2022-08-03T09:47:28.170Z,40.39
2022-08-03T09:48:24.429Z,40.98
2022-08-03T09:49:24.811Z,41.35
2022-08-03T09:50:24.454Z,41.45
2022-08-03T09:52:28.790Z,41.64
2022-08-03T09:52:37.850Z,40.76
2022-08-03T09:53:25.386Z,40.19
2022-08-03T09:54:24.388Z,40.29
2022-08-03T09:56:33.720Z,40.48
2022-08-03T09:56:36.307Z,40.39
2022-08-03T09:57:25.442Z,40.88
2022-08-03T09:58:24.307Z,40.78
2022-08-03T09:59:24.378Z,40.69
2022-08-03T10:00:24.281Z,40.09
2022-08-03T10:01:25.455Z,40.19
2022-08-03T10:02:24.356Z,40.66
2022-08-03T10:03:24.408Z,39.98
2022-08-03T10:04:24.229Z,39.39
2022-08-03T10:05:24.258Z,39.68
2022-08-03T10:06:29.042Z,39.68
2022-08-03T10:07:25.329Z,39.19
2022-08-03T10:08:24.204Z,39.68
2022-08-03T10:09:24.227Z,40.17
2022-08-03T10:10:30.013Z,39.58
2022-08-03T10:11:25.142Z,39.56
2022-08-03T10:12:24.124Z,39.66
2022-08-03T10:13:24.193Z,39.76
2022-08-03T10:14:24.125Z,39.66
2022-08-03T10:16:23.069Z,39.37
2022-08-03T10:16:25.886Z,39.25
2022-08-03T10:17:24.072Z,39.25
2022-08-03T10:18:24.139Z,39.15
2022-08-03T10:19:24.138Z,38.76
2022-08-03T10:20:24.093Z,39.25
2022-08-03T10:21:24.042Z,38.85
2022-08-03T10:22:23.960Z,39.25
2022-08-03T10:23:23.993Z,39.35
2022-08-03T10:24:23.951Z,39.35
2022-08-03T10:25:24.135Z,39.35
2022-08-03T10:26:25.031Z,39.45
2022-08-03T10:27:23.902Z,39.45
2022-08-03T10:28:23.901Z,39.06
2022-08-03T10:29:23.977Z,39.15
2022-08-03T10:30:26.224Z,39.15
2022-08-03T10:31:23.873Z,39.35
2022-08-03T10:32:23.872Z,39.54
2022-08-03T10:33:50.713Z,39.06
2022-08-03T10:34:24.802Z,39.06
2022-08-03T10:35:23.829Z,39.06
2022-08-03T10:36:23.847Z,39.76
2022-08-03T10:37:23.783Z,41.51
2022-08-03T10:38:23.792Z,40.82
2022-08-03T10:39:23.754Z,39.94
2022-08-03T10:40:47.650Z,39.94
2022-08-03T10:41:24.743Z,40.13
2022-08-03T10:42:23.712Z,40.13
2022-08-03T10:43:23.769Z,40.21
2022-08-03T10:44:23.722Z,39.92
2022-08-03T10:45:24.145Z,39.72
2022-08-03T10:46:23.781Z,40.01
2022-08-03T10:47:23.726Z,39.84
2022-08-03T10:48:23.703Z,40.03
2022-08-03T10:49:34.425Z,40.33
2022-08-03T10:50:24.614Z,40.72
2022-08-03T10:51:23.596Z,40.92
2022-08-03T10:52:32.833Z,41.58
2022-08-03T10:53:24.587Z,41.19
2022-08-03T10:54:23.535Z,40.11
2022-08-03T10:55:23.625Z,40.41
2022-08-03T10:56:49.927Z,39.82
2022-08-03T10:57:24.774Z,39.70
2022-08-03T10:58:30.549Z,39.90
2022-08-03T10:59:28.038Z,39.61
2022-08-03T11:00:23.620Z,39.41
2022-08-03T11:01:23.484Z,39.51
2022-08-03T11:02:24.545Z,39.41
2022-08-03T11:03:23.448Z,39.78
2022-08-03T11:04:23.477Z,39.69
2022-08-03T11:05:23.561Z,39.19
2022-08-03T11:06:23.502Z,39.49
2022-08-03T11:07:23.803Z,39.78
2022-08-03T11:08:23.421Z,40.08
2022-08-03T11:09:23.443Z,39.88
2022-08-03T11:10:23.391Z,39.19
2022-08-03T11:11:23.329Z,39.59
2022-08-03T11:12:30.007Z,38.72
2022-08-03T11:13:24.446Z,38.92
2022-08-03T11:14:23.311Z,39.11
2022-08-03T11:15:23.365Z,39.22
2022-08-03T11:16:23.283Z,40.29
2022-08-03T11:17:23.271Z,39.41
2022-08-03T11:18:23.365Z,39.09
2022-08-03T11:19:23.236Z,38.80
2022-08-03T11:20:23.417Z,38.80
2022-08-03T11:21:25.724Z,38.60
2022-08-03T11:22:24.218Z,38.12
2022-08-03T11:24:04.486Z,38.31
2022-08-03T11:24:24.227Z,40.08
2022-08-03T11:25:53.718Z,38.60
2022-08-03T11:26:24.112Z,38.60
2022-08-03T11:27:23.466Z,39.00
2022-08-03T11:28:23.176Z,38.90
2022-08-03T11:29:23.102Z,38.90
2022-08-03T11:30:27.477Z,38.39
2022-08-03T11:31:48.044Z,38.39
2022-08-03T11:32:24.160Z,38.20
2022-08-03T11:33:23.046Z,38.00
2022-08-03T11:34:23.076Z,38.00
2022-08-03T11:35:23.114Z,38.68
2022-08-03T11:36:32.268Z,38.37
2022-08-03T11:37:27.557Z,38.08
2022-08-03T11:38:24.117Z,37.98
2022-08-03T11:39:22.984Z,37.00
2022-08-03T11:40:23.055Z,36.80
2022-08-03T11:41:23.133Z,37.19
2022-08-03T11:42:22.977Z,37.39
2022-08-03T11:43:24.204Z,37.79
2022-08-03T11:44:22.931Z,37.49
2022-08-03T11:45:22.917Z,37.59
2022-08-03T11:46:29.790Z,37.79
2022-08-03T11:47:24.004Z,37.31
2022-08-03T11:48:22.856Z,37.31
2022-08-03T11:49:23.172Z,37.41
2022-08-03T11:50:24.059Z,37.49
2022-08-03T11:51:23.053Z,37.39
2022-08-03T11:52:26.756Z,37.29
2022-08-03T11:53:23.808Z,37.79
2022-08-03T11:54:22.868Z,37.69
2022-08-03T11:55:23.751Z,37.69
2022-08-03T11:56:22.793Z,37.98
2022-08-03T11:57:22.735Z,37.19
2022-08-03T11:59:15.398Z,38.47
2022-08-03T11:59:23.728Z,37.29
2022-08-03T12:00:22.765Z,37.51
2022-08-03T12:01:23.225Z,37.61
2022-08-03T12:02:22.687Z,37.90
2022-08-03T12:03:22.796Z,38.18
2022-08-03T12:04:22.780Z,37.49
2022-08-03T12:05:22.732Z,37.00
2022-08-03T12:06:22.632Z,37.10
2022-08-03T12:07:24.438Z,37.08
2022-08-03T12:08:23.612Z,36.88
2022-08-03T12:09:22.921Z,37.47
2022-08-03T12:10:22.633Z,37.77
2022-08-03T12:11:22.641Z,37.77
2022-08-03T12:12:22.540Z,38.55
2022-08-03T12:14:44.423Z,37.96
2022-08-03T12:14:48.861Z,37.27
2022-08-03T12:15:23.562Z,37.27
2022-08-03T12:16:22.491Z,37.57
2022-08-03T12:17:22.823Z,36.90
2022-08-03T12:18:22.495Z,36.41
2022-08-03T12:19:22.499Z,37.10
2022-08-03T12:20:31.323Z,37.59
2022-08-03T12:21:23.461Z,37.29
2022-08-03T12:22:22.435Z,37.10
2022-08-03T12:23:22.452Z,37.49
2022-08-03T12:24:22.589Z,37.98
2022-08-03T12:25:39.524Z,37.47
2022-08-03T12:26:23.516Z,37.87
2022-08-03T12:27:22.504Z,37.77
2022-08-03T12:28:36.376Z,37.96
2022-08-03T12:29:23.605Z,37.26
2022-08-03T12:30:22.601Z,37.26
2022-08-03T12:31:22.341Z,37.16
2022-08-03T12:32:22.488Z,37.35
2022-08-03T12:33:22.335Z,37.45
2022-08-03T12:34:22.293Z,37.16
2022-08-03T12:35:22.324Z,36.96
2022-08-03T12:36:22.297Z,37.55
2022-08-03T12:37:29.015Z,36.47
2022-08-03T12:38:23.224Z,36.47
2022-08-03T12:39:22.273Z,36.67
2022-08-03T12:40:26.317Z,37.16
2022-08-03T12:41:23.210Z,37.06
2022-08-03T12:42:22.228Z,37.45
2022-08-03T12:43:22.254Z,37.06
2022-08-03T12:44:22.133Z,37.06
2022-08-03T12:45:22.150Z,36.65
2022-08-03T12:46:22.123Z,36.55
2022-08-03T12:47:22.119Z,36.18
2022-08-03T12:48:22.115Z,36.67
2022-08-03T12:49:22.164Z,36.38
2022-08-03T12:50:22.191Z,36.28
2022-08-03T12:51:22.116Z,36.67
2022-08-03T12:52:22.058Z,36.77